createdAt,value
2017-09-30T00:00:06.194Z,23.87
2017-09-30T00:02:35.046Z,22.20
2017-09-30T00:05:03.922Z,20.80
2017-09-30T00:07:32.783Z,22.63
2017-09-30T00:10:01.630Z,20.20
2017-09-30T00:12:30.494Z,21.50
2017-09-30T00:14:59.385Z,20.40
2017-09-30T00:17:28.285Z,19.60
2017-09-30T00:19:57.131Z,21.80
2017-09-30T00:22:26.002Z,21.40
2017-09-30T00:24:54.996Z,19.27
2017-09-30T00:27:23.849Z,22.13
2017-09-30T00:29:52.711Z,20.73
2017-09-30T00:32:21.605Z,20.80
2017-09-30T00:34:50.463Z,20.90
2017-09-30T00:37:19.318Z,21.27
2017-09-30T00:39:48.209Z,20.63
2017-09-30T00:42:17.064Z,21.70
2017-09-30T00:44:45.920Z,21.53
2017-09-30T00:47:14.832Z,20.67
2017-09-30T00:49:43.674Z,21.00
2017-09-30T00:52:12.517Z,20.57
2017-09-30T00:54:41.413Z,19.80
2017-09-30T00:57:10.278Z,18.70
2017-09-30T00:59:39.129Z,20.20
2017-09-30T01:02:08.021Z,18.20
2017-09-30T01:04:36.880Z,19.07
2017-09-30T01:07:05.729Z,19.20
2017-09-30T01:09:34.637Z,17.80
2017-09-30T01:12:03.487Z,19.00
2017-09-30T01:14:32.326Z,20.23
2017-09-30T01:17:01.189Z,21.57
2017-09-30T01:19:30.046Z,18.70
2017-09-30T01:21:58.935Z,18.50
2017-09-30T01:24:27.785Z,20.90
2017-09-30T01:26:56.647Z,19.77
2017-09-30T01:29:25.535Z,18.80
2017-09-30T01:31:54.390Z,19.20
2017-09-30T01:34:23.251Z,19.33
2017-09-30T01:36:52.164Z,17.60
2017-09-30T01:39:21.014Z,16.93
2017-09-30T01:41:49.877Z,19.00
2017-09-30T01:44:18.796Z,17.10
2017-09-30T01:46:47.654Z,16.93
2017-09-30T01:49:16.510Z,17.73
2017-09-30T01:51:45.417Z,18.60
2017-09-30T01:54:14.274Z,17.67
2017-09-30T01:56:43.130Z,17.20
2017-09-30T01:59:11.994Z,18.57
2017-09-30T02:01:40.835Z,17.40
2017-09-30T02:04:09.728Z,19.40
2017-09-30T02:06:38.589Z,18.43
2017-09-30T02:09:07.476Z,17.43
2017-09-30T02:11:36.358Z,17.63
2017-09-30T02:14:05.229Z,16.77
2017-09-30T02:16:34.087Z,16.47
2017-09-30T02:19:02.958Z,16.43
2017-09-30T02:21:31.823Z,15.43
2017-09-30T02:24:00.685Z,16.60
2017-09-30T02:26:29.554Z,14.53
2017-09-30T02:28:58.405Z,14.33
2017-09-30T02:31:27.302Z,15.50
2017-09-30T02:33:56.155Z,14.57
2017-09-30T02:36:25.046Z,14.53
2017-09-30T02:38:53.949Z,15.60
2017-09-30T02:41:22.810Z,13.20
2017-09-30T02:43:51.682Z,15.83
2017-09-30T02:46:20.554Z,16.07
2017-09-30T02:48:49.410Z,14.80
2017-09-30T02:51:18.441Z,13.10
2017-09-30T02:53:47.306Z,14.20
2017-09-30T02:56:16.160Z,14.90
2017-09-30T02:58:45.070Z,15.13
2017-09-30T03:01:13.926Z,14.20
2017-09-30T03:03:42.774Z,14.70
2017-09-30T03:06:11.668Z,14.97
2017-09-30T03:08:40.511Z,15.23
2017-09-30T03:11:09.390Z,14.17
2017-09-30T03:13:38.433Z,15.63
2017-09-30T03:16:07.294Z,16.13
2017-09-30T03:18:36.147Z,13.17
2017-09-30T03:21:05.042Z,14.33
2017-09-30T03:23:33.895Z,14.20
2017-09-30T03:26:02.778Z,13.50
2017-09-30T03:28:31.673Z,14.73
2017-09-30T03:31:00.522Z,13.80
2017-09-30T03:33:29.384Z,14.13
2017-09-30T03:35:58.263Z,13.53
2017-09-30T03:38:27.137Z,15.13
2017-09-30T03:40:56.219Z,14.20
2017-09-30T03:43:25.089Z,12.70
2017-09-30T03:45:53.968Z,13.00
2017-09-30T03:48:22.854Z,13.07
2017-09-30T03:50:51.698Z,13.63
2017-09-30T03:53:20.556Z,13.37
2017-09-30T03:55:49.422Z,12.83
2017-09-30T03:58:18.300Z,11.80
2017-09-30T04:00:47.160Z,12.57
2017-09-30T04:03:16.283Z,13.17
2017-09-30T04:05:45.139Z,13.47
2017-09-30T04:08:13.987Z,12.73
2017-09-30T04:10:42.888Z,11.67
2017-09-30T04:13:11.749Z,12.27
2017-09-30T04:15:40.637Z,12.87
2017-09-30T04:18:09.518Z,11.70
2017-09-30T04:20:38.374Z,12.37
2017-09-30T04:23:07.234Z,12.83
2017-09-30T04:25:36.152Z,11.67
2017-09-30T04:28:05.016Z,12.40
2017-09-30T04:30:33.867Z,13.80
2017-09-30T04:33:02.894Z,12.67
2017-09-30T04:35:31.748Z,11.53
2017-09-30T04:38:00.611Z,12.23
2017-09-30T04:40:29.666Z,12.47
2017-09-30T04:42:58.516Z,10.53
2017-09-30T04:45:27.370Z,11.40
2017-09-30T04:47:56.271Z,11.63
2017-09-30T04:50:25.137Z,12.83
2017-09-30T04:52:53.991Z,10.43
2017-09-30T04:55:22.999Z,11.00
2017-09-30T04:57:51.854Z,10.07
2017-09-30T05:00:20.699Z,9.87
2017-09-30T05:02:49.567Z,9.77
2017-09-30T05:05:18.429Z,9.53
2017-09-30T05:07:47.306Z,9.90
2017-09-30T05:10:16.168Z,10.17
2017-09-30T05:12:45.027Z,10.60
2017-09-30T05:15:13.916Z,10.80
2017-09-30T05:17:42.775Z,9.63
2017-09-30T05:20:11.646Z,10.07
2017-09-30T05:22:40.542Z,10.67
2017-09-30T05:25:09.408Z,10.60
2017-09-30T05:27:38.282Z,9.57
2017-09-30T05:30:07.352Z,11.67
2017-09-30T05:32:36.222Z,10.47
2017-09-30T05:35:05.078Z,11.63
2017-09-30T05:37:33.953Z,10.60
2017-09-30T05:40:02.872Z,8.90
2017-09-30T05:42:31.744Z,10.33
2017-09-30T05:45:00.611Z,10.87
2017-09-30T05:47:29.525Z,11.80
2017-09-30T05:49:58.390Z,14.07
2017-09-30T05:52:27.270Z,12.27
2017-09-30T05:54:56.170Z,12.83
2017-09-30T05:57:25.055Z,12.47
2017-09-30T05:59:53.974Z,11.80
2017-09-30T06:02:22.841Z,12.30
2017-09-30T06:04:51.739Z,10.70
2017-09-30T06:07:20.608Z,10.93
2017-09-30T06:09:49.487Z,9.30
2017-09-30T06:12:18.479Z,11.23
2017-09-30T06:14:47.334Z,12.43
2017-09-30T06:17:16.196Z,10.40
2017-09-30T06:19:45.082Z,11.40
2017-09-30T06:22:13.934Z,10.90
2017-09-30T06:24:42.785Z,11.30
2017-09-30T06:27:11.721Z,11.10
2017-09-30T06:29:40.587Z,11.40
2017-09-30T06:32:09.438Z,11.40
2017-09-30T06:34:38.471Z,9.63
2017-09-30T06:37:07.323Z,10.10
2017-09-30T06:39:36.182Z,11.50
2017-09-30T06:42:05.059Z,12.00
2017-09-30T06:44:33.927Z,11.20
2017-09-30T06:47:02.796Z,11.60
2017-09-30T06:49:31.663Z,11.27
2017-09-30T06:52:00.534Z,9.60
2017-09-30T06:54:29.691Z,10.43
2017-09-30T06:56:58.558Z,12.93
2017-09-30T06:59:27.474Z,12.27
2017-09-30T07:01:56.442Z,10.40
2017-09-30T07:04:25.342Z,10.03
2017-09-30T07:06:54.234Z,9.47
2017-09-30T07:09:23.237Z,11.80
2017-09-30T07:11:52.104Z,11.50
2017-09-30T07:14:20.964Z,12.50
2017-09-30T07:16:49.867Z,10.97
2017-09-30T07:19:18.729Z,11.70
2017-09-30T07:21:47.578Z,11.90
2017-09-30T07:24:16.471Z,11.93
2017-09-30T07:26:45.324Z,11.87
2017-09-30T07:29:14.207Z,11.00
2017-09-30T07:31:43.125Z,10.37
2017-09-30T07:34:11.974Z,11.30
2017-09-30T07:36:40.838Z,11.43
2017-09-30T07:39:10.806Z,10.40
2017-09-30T07:41:39.663Z,9.60
2017-09-30T07:44:08.529Z,11.90
2017-09-30T07:46:37.410Z,12.00
2017-09-30T07:49:06.274Z,11.97
2017-09-30T07:51:35.332Z,11.60
2017-09-30T07:54:04.183Z,11.00
2017-09-30T07:56:33.028Z,10.13
2017-09-30T07:59:01.924Z,10.10
2017-09-30T08:01:30.817Z,9.63
2017-09-30T08:03:59.677Z,10.50
2017-09-30T08:06:28.611Z,11.53
2017-09-30T08:08:57.525Z,11.50
2017-09-30T08:11:27.315Z,10.50
2017-09-30T08:13:56.201Z,9.83
2017-09-30T08:16:25.117Z,14.13
2017-09-30T08:18:54.006Z,11.53
2017-09-30T08:21:22.909Z,13.90
2017-09-30T08:23:51.777Z,9.20
2017-09-30T08:26:20.627Z,9.27
2017-09-30T08:28:49.502Z,7.87
2017-09-30T08:31:18.369Z,9.10
2017-09-30T08:33:47.242Z,9.10
2017-09-30T08:36:16.109Z,9.83
2017-09-30T08:38:45.017Z,8.63
2017-09-30T08:41:13.875Z,9.50
2017-09-30T08:43:42.733Z,10.63
2017-09-30T08:46:11.705Z,9.43
2017-09-30T08:48:40.563Z,10.70
2017-09-30T08:51:09.426Z,9.53
2017-09-30T08:53:38.311Z,9.07
2017-09-30T08:56:07.189Z,10.10
2017-09-30T08:58:36.048Z,9.80
2017-09-30T09:01:05.301Z,9.73
2017-09-30T09:03:34.178Z,8.97
2017-09-30T09:06:03.024Z,9.57
2017-09-30T09:08:31.918Z,11.03
2017-09-30T09:11:00.768Z,8.80
2017-09-30T09:13:29.654Z,8.90
2017-09-30T09:15:58.577Z,9.40
2017-09-30T09:18:27.439Z,9.10
2017-09-30T09:20:56.302Z,9.07
2017-09-30T09:23:25.183Z,10.50
2017-09-30T09:25:54.034Z,8.73
2017-09-30T09:28:22.893Z,10.57
2017-09-30T09:30:51.835Z,10.70
2017-09-30T09:33:20.698Z,8.90
2017-09-30T09:35:49.599Z,8.93
2017-09-30T09:38:18.482Z,9.27
2017-09-30T09:40:47.365Z,9.87
2017-09-30T09:43:17.520Z,8.87
2017-09-30T09:45:46.382Z,18.50
2017-09-30T09:48:15.269Z,11.77
2017-09-30T09:50:44.154Z,12.30
2017-09-30T09:53:13.014Z,13.30
2017-09-30T09:55:41.886Z,13.63
2017-09-30T09:58:10.819Z,13.33
2017-09-30T10:00:39.699Z,11.33
2017-09-30T10:03:08.553Z,12.00
2017-09-30T10:05:37.456Z,14.87
2017-09-30T10:08:06.310Z,12.63
2017-09-30T10:10:35.194Z,11.83
2017-09-30T10:13:04.101Z,10.53
2017-09-30T10:15:32.964Z,12.70
2017-09-30T10:18:01.841Z,11.80
2017-09-30T10:20:30.751Z,10.57
2017-09-30T10:22:59.617Z,11.07
2017-09-30T10:25:28.474Z,10.30
2017-09-30T10:27:57.343Z,9.73
2017-09-30T10:30:26.206Z,10.20
2017-09-30T10:32:55.103Z,9.13
2017-09-30T10:35:23.953Z,9.93
2017-09-30T10:37:52.847Z,12.77
2017-09-30T10:40:21.755Z,11.67
2017-09-30T10:42:50.618Z,11.60
2017-09-30T10:45:19.493Z,11.77
2017-09-30T10:47:48.475Z,10.50
2017-09-30T10:50:17.521Z,10.63
2017-09-30T10:52:46.383Z,10.20
2017-09-30T10:55:15.308Z,10.43
2017-09-30T10:57:44.214Z,11.47
2017-09-30T11:00:13.079Z,12.27
2017-09-30T11:02:41.978Z,12.80
2017-09-30T11:05:11.001Z,12.00
2017-09-30T11:07:39.925Z,11.83
2017-09-30T11:10:08.794Z,11.57
2017-09-30T11:12:37.673Z,12.23
2017-09-30T11:15:06.579Z,11.13
2017-09-30T11:17:35.455Z,10.07
2017-09-30T11:20:04.367Z,10.93
2017-09-30T11:22:33.258Z,11.17
2017-09-30T11:25:02.118Z,17.00
2017-09-30T11:27:31.010Z,12.47
2017-09-30T11:29:59.876Z,12.27
2017-09-30T11:32:28.750Z,10.37
2017-09-30T11:34:57.778Z,10.00
2017-09-30T11:37:26.648Z,8.90
2017-09-30T11:39:55.526Z,9.43
2017-09-30T11:42:24.410Z,9.67
2017-09-30T11:44:53.273Z,8.73
2017-09-30T11:47:22.210Z,10.80
2017-09-30T11:49:51.192Z,10.37
2017-09-30T11:52:20.050Z,9.20
2017-09-30T11:54:48.993Z,8.90
2017-09-30T11:57:17.849Z,9.60
2017-09-30T11:59:46.724Z,9.37
2017-09-30T12:02:15.592Z,9.20
2017-09-30T12:04:44.558Z,9.70
2017-09-30T12:07:13.668Z,9.23
2017-09-30T12:09:42.530Z,9.03
2017-09-30T12:12:11.385Z,11.40
2017-09-30T12:14:40.595Z,11.27
2017-09-30T12:17:09.459Z,9.93
2017-09-30T12:19:38.392Z,11.70
2017-09-30T12:22:07.268Z,11.70
2017-09-30T12:24:36.136Z,10.00
2017-09-30T12:27:05.262Z,10.40
2017-09-30T12:29:34.378Z,9.03
2017-09-30T12:32:03.323Z,8.93
2017-09-30T12:34:32.501Z,8.27
2017-09-30T12:37:01.443Z,8.63
2017-09-30T12:39:30.324Z,9.10
2017-09-30T12:41:59.239Z,8.23
2017-09-30T12:44:28.255Z,8.80
2017-09-30T12:46:57.174Z,8.73
2017-09-30T12:49:26.066Z,8.20
2017-09-30T12:51:54.910Z,8.30
2017-09-30T12:54:23.787Z,8.40
2017-09-30T12:56:52.717Z,8.90
2017-09-30T12:59:21.694Z,9.40
2017-09-30T13:01:50.551Z,9.37
2017-09-30T13:04:19.418Z,8.23
2017-09-30T13:06:48.333Z,8.27
2017-09-30T13:09:17.187Z,7.43
2017-09-30T13:11:46.041Z,9.47
2017-09-30T13:14:14.942Z,7.13
2017-09-30T13:16:43.807Z,8.40
2017-09-30T13:19:12.658Z,7.73
2017-09-30T13:21:41.522Z,16.50
2017-09-30T13:24:10.441Z,10.63
2017-09-30T13:26:39.299Z,17.97
2017-09-30T13:29:08.152Z,15.27
2017-09-30T13:31:37.049Z,14.13
2017-09-30T13:34:05.961Z,14.73
2017-09-30T13:36:34.815Z,16.23
2017-09-30T13:39:03.706Z,16.00
2017-09-30T13:41:32.576Z,18.67
2017-09-30T13:44:01.499Z,17.10
2017-09-30T13:46:30.467Z,18.70
2017-09-30T13:48:59.336Z,16.13
2017-09-30T13:51:28.191Z,16.63
2017-09-30T13:53:57.096Z,17.20
2017-09-30T13:56:25.947Z,14.70
2017-09-30T13:58:54.816Z,14.23
2017-09-30T14:01:23.719Z,15.63
2017-09-30T14:03:52.662Z,17.47
2017-09-30T14:06:21.636Z,15.43
2017-09-30T14:08:50.567Z,16.53
2017-09-30T14:11:19.517Z,15.43
2017-09-30T14:13:48.537Z,31.47
2017-09-30T14:16:17.568Z,17.17
2017-09-30T14:18:46.459Z,17.30
2017-09-30T14:21:15.429Z,12.77
2017-09-30T14:23:44.330Z,10.67
2017-09-30T14:26:13.267Z,10.33
2017-09-30T14:28:42.154Z,12.03
2017-09-30T14:31:11.010Z,11.83
2017-09-30T14:33:39.889Z,12.47
2017-09-30T14:36:09.192Z,13.60
2017-09-30T14:38:38.159Z,12.67
2017-09-30T14:41:07.033Z,13.30
2017-09-30T14:43:36.119Z,12.90
2017-09-30T14:46:04.978Z,11.27
2017-09-30T14:48:33.843Z,11.20
2017-09-30T14:51:02.716Z,12.40
2017-09-30T14:53:31.581Z,11.87
2017-09-30T14:56:00.671Z,14.70
2017-09-30T14:58:29.548Z,11.90
2017-09-30T15:00:58.407Z,11.90
2017-09-30T15:03:27.327Z,11.10
2017-09-30T15:05:56.231Z,10.77
2017-09-30T15:08:25.587Z,10.80
2017-09-30T15:10:54.487Z,11.30
2017-09-30T15:13:23.337Z,10.87
2017-09-30T15:15:52.347Z,11.13
2017-09-30T15:18:21.822Z,11.67
2017-09-30T15:20:50.775Z,10.80
2017-09-30T15:23:19.717Z,9.93
2017-09-30T15:25:48.566Z,10.60
2017-09-30T15:28:17.517Z,11.20
2017-09-30T15:30:46.563Z,11.37
2017-09-30T15:33:15.474Z,10.60
2017-09-30T15:35:44.330Z,11.97
2017-09-30T15:38:13.215Z,10.53
2017-09-30T15:40:42.099Z,12.03
2017-09-30T15:43:11.116Z,12.77
2017-09-30T15:45:39.990Z,10.70
2017-09-30T15:48:08.984Z,10.60
2017-09-30T15:50:37.948Z,12.60
2017-09-30T15:53:07.089Z,11.93
2017-09-30T15:55:35.972Z,19.70
2017-09-30T15:58:05.051Z,12.87
2017-09-30T16:00:33.907Z,11.90
2017-09-30T16:03:02.773Z,13.10
2017-09-30T16:05:31.839Z,12.80
2017-09-30T16:08:00.713Z,13.53
2017-09-30T16:10:29.584Z,13.17
2017-09-30T16:12:58.590Z,13.50
2017-09-30T16:15:27.451Z,12.07
2017-09-30T16:17:56.303Z,15.23
2017-09-30T16:20:25.375Z,18.23
2017-09-30T16:22:54.359Z,16.20
2017-09-30T16:25:23.212Z,14.13
2017-09-30T16:27:52.097Z,12.83
2017-09-30T16:30:20.959Z,14.30
2017-09-30T16:32:49.837Z,14.30
2017-09-30T16:35:18.767Z,13.60
2017-09-30T16:37:47.674Z,14.77
2017-09-30T16:40:16.573Z,15.30
2017-09-30T16:42:45.454Z,18.00
2017-09-30T16:45:14.462Z,14.67
2017-09-30T16:47:43.394Z,18.00
2017-09-30T16:50:12.412Z,18.40
2017-09-30T16:52:41.288Z,16.60
2017-09-30T16:55:10.196Z,17.90
2017-09-30T16:57:39.140Z,16.00
2017-09-30T17:00:08.048Z,18.80
2017-09-30T17:02:36.897Z,16.60
2017-09-30T17:05:05.878Z,15.50
2017-09-30T17:07:34.778Z,14.23
2017-09-30T17:10:03.666Z,19.10
2017-09-30T17:12:32.791Z,18.47
2017-09-30T17:15:01.660Z,16.10
2017-09-30T17:17:30.602Z,17.13
2017-09-30T17:19:59.582Z,19.40
2017-09-30T17:22:28.533Z,17.70
2017-09-30T17:24:57.469Z,20.70
2017-09-30T17:27:26.401Z,17.87
2017-09-30T17:29:55.254Z,23.40
2017-09-30T17:32:24.106Z,22.80
2017-09-30T17:34:52.973Z,17.10
2017-09-30T17:37:21.825Z,17.30
2017-09-30T17:39:50.727Z,21.77
2017-09-30T17:42:19.587Z,27.20
2017-09-30T17:44:48.439Z,21.67
2017-09-30T17:47:17.359Z,19.10
2017-09-30T17:49:46.226Z,17.23
2017-09-30T17:52:15.078Z,17.27
2017-09-30T17:54:43.978Z,19.97
2017-09-30T17:57:12.847Z,17.70
2017-09-30T17:59:41.724Z,18.37
2017-09-30T18:02:10.608Z,19.70
2017-09-30T18:04:39.458Z,30.43
2017-09-30T18:07:08.325Z,24.00
2017-09-30T18:09:37.205Z,20.20
2017-09-30T18:12:06.086Z,18.60
2017-09-30T18:14:34.991Z,23.90
2017-09-30T18:17:03.876Z,22.40
2017-09-30T18:19:32.746Z,19.77
2017-09-30T18:22:01.646Z,19.10
2017-09-30T18:24:30.510Z,17.33
2017-09-30T18:26:59.689Z,16.07
2017-09-30T18:29:28.594Z,23.07
2017-09-30T18:31:57.475Z,19.90
2017-09-30T18:34:26.329Z,19.33
2017-09-30T18:36:55.253Z,19.70
2017-09-30T18:39:24.263Z,19.30
2017-09-30T18:41:53.170Z,18.33
2017-09-30T18:44:22.016Z,20.00
2017-09-30T18:46:50.873Z,19.80
2017-09-30T18:49:19.782Z,19.27
2017-09-30T18:51:48.656Z,18.30
2017-09-30T18:54:17.535Z,17.43
2017-09-30T18:56:46.411Z,19.43
2017-09-30T18:59:15.266Z,18.73
2017-09-30T19:01:44.166Z,18.57
2017-09-30T19:04:13.558Z,16.90
2017-09-30T19:06:42.448Z,18.97
2017-09-30T19:09:11.320Z,17.17
2017-09-30T19:11:40.172Z,17.83
2017-09-30T19:14:09.082Z,16.27
2017-09-30T19:16:37.950Z,16.20
2017-09-30T19:19:06.802Z,16.40
2017-09-30T19:21:35.665Z,16.47
2017-09-30T19:24:04.523Z,17.97
2017-09-30T19:26:33.604Z,17.40
2017-09-30T19:29:02.453Z,15.73
2017-09-30T19:31:31.311Z,18.37
2017-09-30T19:34:00.203Z,18.50
2017-09-30T19:36:29.051Z,18.67
2017-09-30T19:38:57.922Z,18.43
2017-09-30T19:41:26.839Z,16.33
2017-09-30T19:43:55.708Z,16.90
2017-09-30T19:46:24.568Z,19.87
2017-09-30T19:48:54.050Z,18.10
2017-09-30T19:51:23.018Z,19.90
2017-09-30T19:53:51.899Z,21.57
2017-09-30T19:56:20.775Z,20.77
2017-09-30T19:58:49.662Z,22.10
2017-09-30T20:01:18.682Z,21.53
2017-09-30T20:03:47.558Z,19.90
2017-09-30T20:06:16.428Z,20.83
2017-09-30T20:08:45.311Z,20.40
2017-09-30T20:11:14.176Z,20.50
2017-09-30T20:13:43.725Z,19.37
2017-09-30T20:16:12.576Z,23.70
2017-09-30T20:18:41.425Z,22.17
2017-09-30T20:21:10.343Z,19.27
2017-09-30T20:23:39.231Z,19.63
2017-09-30T20:26:08.171Z,17.57
2017-09-30T20:28:37.086Z,18.93
2017-09-30T20:31:05.972Z,18.40
2017-09-30T20:33:34.838Z,19.50
2017-09-30T20:36:03.755Z,17.30
2017-09-30T20:38:32.646Z,18.80
2017-09-30T20:41:01.518Z,17.43
2017-09-30T20:43:30.429Z,17.43
2017-09-30T20:45:59.323Z,18.27
2017-09-30T20:48:28.176Z,16.57
2017-09-30T20:50:57.072Z,18.10
2017-09-30T20:53:25.927Z,17.90
2017-09-30T20:55:54.784Z,20.00
2017-09-30T20:58:23.695Z,17.63
2017-09-30T21:00:52.568Z,16.30
2017-09-30T21:03:21.423Z,17.10
2017-09-30T21:05:50.310Z,15.20
2017-09-30T21:08:19.166Z,15.00
2017-09-30T21:10:48.018Z,12.57
2017-09-30T21:13:16.917Z,12.80
2017-09-30T21:15:45.791Z,10.13
2017-09-30T21:18:14.657Z,10.80
2017-09-30T21:20:43.570Z,11.20
2017-09-30T21:23:12.452Z,8.50
2017-09-30T21:25:41.413Z,10.80
2017-09-30T21:28:10.301Z,9.63
2017-09-30T21:30:39.165Z,8.40
2017-09-30T21:33:08.038Z,8.20
2017-09-30T21:35:36.951Z,7.37
2017-09-30T21:38:05.820Z,8.90
2017-09-30T21:40:34.674Z,8.97
2017-09-30T21:43:03.579Z,8.60
2017-09-30T21:45:32.445Z,10.60
2017-09-30T21:48:01.310Z,8.70
2017-09-30T21:50:30.192Z,8.20
2017-09-30T21:52:59.050Z,9.60
2017-09-30T21:55:27.907Z,8.80
2017-09-30T21:57:56.812Z,8.53
2017-09-30T22:00:25.666Z,8.87
2017-09-30T22:02:54.525Z,8.60
2017-09-30T22:05:23.399Z,7.63
2017-09-30T22:07:52.249Z,8.20
2017-09-30T22:10:21.316Z,8.83
2017-09-30T22:12:50.170Z,7.73
2017-09-30T22:15:19.037Z,8.93
2017-09-30T22:17:47.930Z,8.67
2017-09-30T22:20:16.823Z,9.37
2017-09-30T22:22:45.670Z,8.33
2017-09-30T22:25:14.571Z,8.77
2017-09-30T22:27:43.429Z,7.93
2017-09-30T22:30:12.278Z,8.73
2017-09-30T22:32:41.167Z,8.07
2017-09-30T22:35:10.012Z,9.10
2017-09-30T22:37:38.858Z,8.30
2017-09-30T22:40:07.749Z,8.90
2017-09-30T22:42:36.610Z,8.80
2017-09-30T22:45:05.483Z,8.10
2017-09-30T22:47:34.398Z,10.80
2017-09-30T22:50:03.266Z,8.30
2017-09-30T22:52:32.110Z,7.20
2017-09-30T22:55:01.054Z,7.00
2017-09-30T22:57:29.922Z,7.47
2017-09-30T22:59:58.774Z,7.83
2017-09-30T23:02:27.788Z,7.33
2017-09-30T23:04:57.362Z,6.10
2017-09-30T23:07:26.216Z,6.00
2017-09-30T23:09:55.099Z,5.43
2017-09-30T23:12:24.026Z,5.70
2017-09-30T23:14:52.902Z,4.90
2017-09-30T23:17:21.782Z,5.20
2017-09-30T23:19:50.632Z,5.70
2017-09-30T23:22:19.485Z,6.10
2017-09-30T23:24:48.512Z,4.80
2017-09-30T23:27:17.362Z,4.90
2017-09-30T23:29:46.232Z,5.03
2017-09-30T23:32:15.283Z,4.00
2017-09-30T23:34:44.175Z,4.30
2017-09-30T23:37:13.042Z,3.37
2017-09-30T23:39:41.918Z,4.50
2017-09-30T23:42:10.771Z,4.30
2017-09-30T23:44:39.656Z,4.40
2017-09-30T23:47:08.510Z,3.70
2017-09-30T23:49:37.351Z,3.90
2017-09-30T23:52:06.219Z,4.60
2017-09-30T23:54:35.071Z,4.57
2017-09-30T23:57:03.978Z,5.20
2017-09-30T23:59:32.850Z,5.37
